sensor_id;sensor_type;location;lat;lon;timestamp;P1;durP1;ratioP1;P2;durP2;ratioP2
10142;SDS011;5112;54.088;13.446;2022-11-15T00:07:56;69.23;;;41.10;;
10142;SDS011;5112;54.088;13.446;2022-11-15T00:17:58;73.03;;;50.10;;
10142;SDS011;5112;54.088;13.446;2022-11-15T00:28:01;68.33;;;40.07;;
10142;SDS011;5112;54.088;13.446;2022-11-15T00:38:03;69.33;;;40.57;;
10142;SDS011;5112;54.088;13.446;2022-11-15T00:48:06;71.70;;;43.07;;
10142;SDS011;5112;54.088;13.446;2022-11-15T00:58:08;67.87;;;38.57;;
10142;SDS011;5112;54.088;13.446;2022-11-15T01:08:13;68.60;;;40.83;;
10142;SDS011;5112;54.088;13.446;2022-11-15T01:18:15;64.37;;;39.17;;
10142;SDS011;5112;54.088;13.446;2022-11-15T01:28:18;67.17;;;38.97;;
10142;SDS011;5112;54.088;13.446;2022-11-15T01:38:20;76.63;;;47.87;;
10142;SDS011;5112;54.088;13.446;2022-11-15T01:48:23;68.70;;;45.23;;
10142;SDS011;5112;54.088;13.446;2022-11-15T01:58:30;61.33;;;37.30;;
10142;SDS011;5112;54.088;13.446;2022-11-15T02:08:33;67.57;;;38.83;;
10142;SDS011;5112;54.088;13.446;2022-11-15T02:18:35;66.33;;;45.87;;
10142;SDS011;5112;54.088;13.446;2022-11-15T02:28:47;71.97;;;39.80;;
10142;SDS011;5112;54.088;13.446;2022-11-15T02:39:00;64.77;;;45.50;;
10142;SDS011;5112;54.088;13.446;2022-11-15T02:49:08;70.70;;;44.47;;
10142;SDS011;5112;54.088;13.446;2022-11-15T02:59:16;63.63;;;42.37;;
10142;SDS011;5112;54.088;13.446;2022-11-15T03:09:31;61.93;;;34.40;;
10142;SDS011;5112;54.088;13.446;2022-11-15T03:19:38;56.93;;;34.33;;
10142;SDS011;5112;54.088;13.446;2022-11-15T03:29:45;64.03;;;33.83;;
10142;SDS011;5112;54.088;13.446;2022-11-15T03:39:52;58.20;;;32.83;;
10142;SDS011;5112;54.088;13.446;2022-11-15T03:49:55;62.92;;;39.67;;
10142;SDS011;5112;54.088;13.446;2022-11-15T04:00:02;59.37;;;32.10;;
10142;SDS011;5112;54.088;13.446;2022-11-15T04:10:05;69.57;;;42.13;;
10142;SDS011;5112;54.088;13.446;2022-11-15T04:20:10;61.33;;;34.27;;
10142;SDS011;5112;54.088;13.446;2022-11-15T04:30:31;62.73;;;33.53;;
10142;SDS011;5112;54.088;13.446;2022-11-15T04:40:34;59.80;;;32.00;;
10142;SDS011;5112;54.088;13.446;2022-11-15T04:50:36;58.63;;;32.37;;
10142;SDS011;5112;54.088;13.446;2022-11-15T05:00:39;53.60;;;30.00;;
10142;SDS011;5112;54.088;13.446;2022-11-15T05:10:41;57.70;;;31.87;;
10142;SDS011;5112;54.088;13.446;2022-11-15T05:20:44;62.25;;;39.25;;
10142;SDS011;5112;54.088;13.446;2022-11-15T05:30:46;58.33;;;32.10;;
10142;SDS011;5112;54.088;13.446;2022-11-15T05:40:49;54.07;;;31.00;;
10142;SDS011;5112;54.088;13.446;2022-11-15T05:50:50;59.10;;;33.07;;
10142;SDS011;5112;54.088;13.446;2022-11-15T06:00:54;53.93;;;29.43;;
10142;SDS011;5112;54.088;13.446;2022-11-15T06:10:56;60.23;;;37.70;;
10142;SDS011;5112;54.088;13.446;2022-11-15T06:21:05;53.60;;;29.87;;
10142;SDS011;5112;54.088;13.446;2022-11-15T06:31:07;56.77;;;32.37;;
10142;SDS011;5112;54.088;13.446;2022-11-15T06:41:13;56.47;;;30.80;;
10142;SDS011;5112;54.088;13.446;2022-11-15T06:51:16;57.37;;;31.93;;
10142;SDS011;5112;54.088;13.446;2022-11-15T07:01:19;47.27;;;28.20;;
10142;SDS011;5112;54.088;13.446;2022-11-15T07:11:21;48.97;;;29.90;;
10142;SDS011;5112;54.088;13.446;2022-11-15T07:21:24;46.07;;;27.90;;
10142;SDS011;5112;54.088;13.446;2022-11-15T07:31:26;47.20;;;29.00;;
10142;SDS011;5112;54.088;13.446;2022-11-15T07:41:29;46.47;;;28.40;;
10142;SDS011;5112;54.088;13.446;2022-11-15T07:51:31;41.43;;;26.97;;
10142;SDS011;5112;54.088;13.446;2022-11-15T08:01:34;43.13;;;26.00;;
10142;SDS011;5112;54.088;13.446;2022-11-15T08:11:36;46.73;;;27.43;;
10142;SDS011;5112;54.088;13.446;2022-11-15T08:21:39;44.77;;;26.70;;
10142;SDS011;5112;54.088;13.446;2022-11-15T08:31:40;43.00;;;26.67;;
10142;SDS011;5112;54.088;13.446;2022-11-15T08:41:43;43.23;;;26.27;;
10142;SDS011;5112;54.088;13.446;2022-11-15T08:51:45;43.07;;;26.67;;
10142;SDS011;5112;54.088;13.446;2022-11-15T09:01:48;45.83;;;26.33;;
10142;SDS011;5112;54.088;13.446;2022-11-15T09:11:50;52.10;;;28.17;;
10142;SDS011;5112;54.088;13.446;2022-11-15T09:21:53;41.10;;;25.33;;
10142;SDS011;5112;54.088;13.446;2022-11-15T09:31:55;41.13;;;27.23;;
10142;SDS011;5112;54.088;13.446;2022-11-15T09:42:05;38.70;;;25.37;;
10142;SDS011;5112;54.088;13.446;2022-11-15T09:52:20;37.03;;;24.60;;
10142;SDS011;5112;54.088;13.446;2022-11-15T10:02:41;43.60;;;26.47;;
10142;SDS011;5112;54.088;13.446;2022-11-15T10:12:51;36.33;;;24.20;;
10142;SDS011;5112;54.088;13.446;2022-11-15T10:22:55;36.13;;;24.43;;
10142;SDS011;5112;54.088;13.446;2022-11-15T10:33:08;37.03;;;25.60;;
10142;SDS011;5112;54.088;13.446;2022-11-15T10:43:17;30.50;;;21.80;;
10142;SDS011;5112;54.088;13.446;2022-11-15T10:53:21;32.93;;;22.87;;
10142;SDS011;5112;54.088;13.446;2022-11-15T11:03:34;36.50;;;25.83;;
10142;SDS011;5112;54.088;13.446;2022-11-15T11:13:38;33.30;;;23.80;;
10142;SDS011;5112;54.088;13.446;2022-11-15T11:23:47;33.17;;;22.10;;
10142;SDS011;5112;54.088;13.446;2022-11-15T11:33:56;32.20;;;22.37;;
10142;SDS011;5112;54.088;13.446;2022-11-15T11:44:10;36.20;;;22.93;;
10142;SDS011;5112;54.088;13.446;2022-11-15T11:54:20;33.30;;;22.97;;
10142;SDS011;5112;54.088;13.446;2022-11-15T12:04:29;33.13;;;22.10;;
10142;SDS011;5112;54.088;13.446;2022-11-15T12:14:35;35.57;;;23.73;;
10142;SDS011;5112;54.088;13.446;2022-11-15T12:24:41;39.43;;;24.73;;
10142;SDS011;5112;54.088;13.446;2022-11-15T12:34:49;38.23;;;25.37;;
10142;SDS011;5112;54.088;13.446;2022-11-15T12:44:58;39.83;;;26.67;;
10142;SDS011;5112;54.088;13.446;2022-11-15T12:55:01;37.20;;;25.30;;
10142;SDS011;5112;54.088;13.446;2022-11-15T13:15:56;44.47;;;27.60;;
10142;SDS011;5112;54.088;13.446;2022-11-15T13:26:04;45.70;;;28.87;;
10142;SDS011;5112;54.088;13.446;2022-11-15T13:36:13;44.40;;;27.40;;
10142;SDS011;5112;54.088;13.446;2022-11-15T13:46:18;54.23;;;30.23;;
10142;SDS011;5112;54.088;13.446;2022-11-15T13:56:21;63.80;;;34.67;;
10142;SDS011;5112;54.088;13.446;2022-11-15T14:06:25;75.27;;;36.47;;
10142;SDS011;5112;54.088;13.446;2022-11-15T14:16:32;66.13;;;33.77;;
10142;SDS011;5112;54.088;13.446;2022-11-15T14:26:37;54.13;;;30.60;;
10142;SDS011;5112;54.088;13.446;2022-11-15T14:36:39;53.00;;;30.00;;
10142;SDS011;5112;54.088;13.446;2022-11-15T14:46:43;46.07;;;27.43;;
10142;SDS011;5112;54.088;13.446;2022-11-15T14:56:45;43.57;;;26.73;;
10142;SDS011;5112;54.088;13.446;2022-11-15T15:06:48;49.57;;;28.60;;
10142;SDS011;5112;54.088;13.446;2022-11-15T15:16:49;47.97;;;28.70;;
10142;SDS011;5112;54.088;13.446;2022-11-15T15:26:52;52.67;;;30.63;;
10142;SDS011;5112;54.088;13.446;2022-11-15T15:37:06;51.60;;;29.20;;
10142;SDS011;5112;54.088;13.446;2022-11-15T15:47:11;50.80;;;28.07;;
10142;SDS011;5112;54.088;13.446;2022-11-15T15:57:13;55.03;;;29.33;;
10142;SDS011;5112;54.088;13.446;2022-11-15T16:07:17;52.30;;;29.90;;
10142;SDS011;5112;54.088;13.446;2022-11-15T16:17:25;55.63;;;31.13;;
10142;SDS011;5112;54.088;13.446;2022-11-15T16:27:30;53.93;;;30.10;;
10142;SDS011;5112;54.088;13.446;2022-11-15T16:37:32;54.73;;;31.27;;
10142;SDS011;5112;54.088;13.446;2022-11-15T16:47:35;50.60;;;30.07;;
10142;SDS011;5112;54.088;13.446;2022-11-15T16:57:36;50.77;;;28.33;;
10142;SDS011;5112;54.088;13.446;2022-11-15T17:07:40;50.17;;;29.63;;
10142;SDS011;5112;54.088;13.446;2022-11-15T17:17:42;48.27;;;31.07;;
10142;SDS011;5112;54.088;13.446;2022-11-15T17:27:46;43.67;;;27.50;;
10142;SDS011;5112;54.088;13.446;2022-11-15T17:37:48;40.60;;;25.47;;
10142;SDS011;5112;54.088;13.446;2022-11-15T17:47:51;41.13;;;25.30;;
10142;SDS011;5112;54.088;13.446;2022-11-15T17:57:53;41.40;;;25.47;;
10142;SDS011;5112;54.088;13.446;2022-11-15T18:07:56;41.33;;;25.30;;
10142;SDS011;5112;54.088;13.446;2022-11-15T18:17:58;47.67;;;26.90;;
10142;SDS011;5112;54.088;13.446;2022-11-15T18:28:01;42.37;;;26.00;;
10142;SDS011;5112;54.088;13.446;2022-11-15T18:38:02;41.80;;;25.23;;
10142;SDS011;5112;54.088;13.446;2022-11-15T18:48:05;37.40;;;23.50;;
10142;SDS011;5112;54.088;13.446;2022-11-15T18:58:07;33.70;;;21.70;;
10142;SDS011;5112;54.088;13.446;2022-11-15T19:08:10;35.17;;;21.03;;
10142;SDS011;5112;54.088;13.446;2022-11-15T19:18:12;33.30;;;22.30;;
10142;SDS011;5112;54.088;13.446;2022-11-15T19:28:17;32.67;;;20.77;;
10142;SDS011;5112;54.088;13.446;2022-11-15T19:38:20;31.23;;;20.20;;
10142;SDS011;5112;54.088;13.446;2022-11-15T19:48:23;37.67;;;22.10;;
10142;SDS011;5112;54.088;13.446;2022-11-15T19:58:26;39.20;;;23.47;;
10142;SDS011;5112;54.088;13.446;2022-11-15T20:08:29;37.33;;;22.33;;
10142;SDS011;5112;54.088;13.446;2022-11-15T20:18:32;34.90;;;21.10;;
10142;SDS011;5112;54.088;13.446;2022-11-15T20:28:35;31.80;;;21.13;;
10142;SDS011;5112;54.088;13.446;2022-11-15T20:38:38;32.23;;;19.50;;
10142;SDS011;5112;54.088;13.446;2022-11-15T20:48:41;25.40;;;17.30;;
10142;SDS011;5112;54.088;13.446;2022-11-15T20:58:43;22.77;;;16.20;;
10142;SDS011;5112;54.088;13.446;2022-11-15T21:08:47;23.17;;;16.23;;
10142;SDS011;5112;54.088;13.446;2022-11-15T21:19:06;25.80;;;16.47;;
10142;SDS011;5112;54.088;13.446;2022-11-15T21:29:09;20.57;;;13.97;;
10142;SDS011;5112;54.088;13.446;2022-11-15T21:39:16;18.17;;;13.80;;
10142;SDS011;5112;54.088;13.446;2022-11-15T21:49:19;18.53;;;15.00;;
10142;SDS011;5112;54.088;13.446;2022-11-15T21:59:21;17.53;;;12.37;;
10142;SDS011;5112;54.088;13.446;2022-11-15T22:09:24;17.40;;;11.60;;
10142;SDS011;5112;54.088;13.446;2022-11-15T22:19:26;17.17;;;12.57;;
10142;SDS011;5112;54.088;13.446;2022-11-15T22:29:29;15.00;;;10.77;;
10142;SDS011;5112;54.088;13.446;2022-11-15T22:39:31;17.63;;;11.63;;
10142;SDS011;5112;54.088;13.446;2022-11-15T22:49:34;14.10;;;11.20;;
10142;SDS011;5112;54.088;13.446;2022-11-15T22:59:35;17.13;;;12.13;;
10142;SDS011;5112;54.088;13.446;2022-11-15T23:09:38;16.47;;;11.30;;
10142;SDS011;5112;54.088;13.446;2022-11-15T23:19:40;13.07;;;11.68;;
10142;SDS011;5112;54.088;13.446;2022-11-15T23:29:43;14.63;;;10.73;;
10142;SDS011;5112;54.088;13.446;2022-11-15T23:40:02;12.90;;;11.50;;
10142;SDS011;5112;54.088;13.446;2022-11-15T23:50:06;13.80;;;11.73;;
